Flight Track Log - Related Links

Times and Time Zones

All times are in EDT time to prevent confusion due to time zone crossing. See the RPA3257 flight status page for this flight to view local times or setup timezone preferences in your user account.

Time Position Orientation Groundspeed Altitude Reporting Facility
EDT Latitude Longitude Course Direction KTS MPH feet Rate Location/Type
Thu 03:55:11 PM 39.8833 -75.2167 185° South 164 189 700  Level Philadelphia TRACON
Thu 03:56:23 PM 39.8500 -75.1500 123° Southeast 207 238 2,500 1,682 Climbing Philadelphia TRACON
Thu 03:57:00 PM 39.5982 -75.3000 180° South  Level FlightAware Approximate
Thu 03:57:23 PM 39.8167 -75.0833 123° Southeast 283 326 4,400  Level Philadelphia TRACON
Thu 03:58:00 PM 39.5054 -75.3156 189° South  Level FlightAware Approximate
Thu 03:58:57 PM 39.7317 -75.1706 218° Southwest 269 310 8,200  Level Washington Center
Thu 03:59:00 PM 39.4134 -75.3355 185° South  Level FlightAware Approximate
Thu 03:59:57 PM 39.6817 -75.2411 227° Southwest 269 310 10,600  Level Washington Center
Thu 04:00:00 PM 39.3200 -75.3459 185° South  Level FlightAware Approximate
Thu 04:00:58 PM 39.6194 -75.3058 219° Southwest 279 321 12,300  Level Washington Center
Thu 04:01:55 PM 39.5319 -75.3225 188° South 296 341 14,100 1,831 Climbing Washington Center
Thu 04:02:56 PM 39.4361 -75.3417 189° South 310 357 15,900 1,180 Climbing Washington Center
Thu 04:03:57 PM 39.3467 -75.3581 188° South 331 381 16,500 496 Climbing Washington Center
Thu 04:04:57 PM 39.2550 -75.3717 187° South 337 388 16,900 203 Climbing Washington Center
Thu 04:05:55 PM 39.1611 -75.3881 188° South 337 388 16,900 407 Level Washington Center
Thu 04:06:55 PM 39.0694 -75.4044 188° South 332 382 17,700 1,041 Climbing Washington Center
Thu 04:07:56 PM 38.9756 -75.4153 185° South 332 382 19,000 1,240 Climbing Washington Center
Thu 04:08:56 PM 38.8778 -75.4317 187° South 342 394 20,200 1,289 Climbing Washington Center
Thu 04:09:57 PM 38.7756 -75.4478 187° South 363 418 21,600 1,210 Climbing Washington Center
Thu 04:10:55 PM 38.6714 -75.4667 188° South 370 426 22,600 1,220 Climbing Washington Center
Thu 04:11:55 PM 38.5650 -75.4775 185° South 381 438 24,000 1,091 Climbing Washington Center
Thu 04:12:56 PM 38.4567 -75.4964 188° South 393 452 24,800 885 Climbing Washington Center
Thu 04:13:57 PM 38.3442 -75.5203 189° South 398 458 25,800 595 Climbing Washington Center
Thu 04:14:57 PM 38.2544 -75.5944 213° Southwest 390 449 26,000 305 Climbing Washington Center
Thu 04:15:55 PM 38.1669 -75.6736 215° Southwest 385 443 26,400 756 Climbing Washington Center
Thu 04:16:56 PM 38.0792 -75.7581 217° Southwest 390 449 27,500 1,033 Climbing Washington Center
Thu 04:17:57 PM 37.9914 -75.8394 216° Southwest 396 456 28,500 958 Climbing Washington Center
Thu 04:18:55 PM 37.9017 -75.9258 217° Southwest 396 456 29,400 1,119 Climbing Washington Center
Thu 04:19:55 PM 37.8117 -76.0072 216° Southwest 402 463 30,700 1,200 Climbing Washington Center
Thu 04:20:55 PM 37.7236 -76.0986 219° Southwest 407 468 31,800 893 Climbing Washington Center
Thu 04:21:56 PM 37.6294 -76.1767 213° Southwest 412 474 32,500 744 Climbing Washington Center
Thu 04:22:56 PM 37.5372 -76.2650 217° Southwest 412 474 33,300 756 Climbing Washington Center
Thu 04:23:55 PM 37.4472 -76.3453 215° Southwest 417 480 34,000 353 Climbing Washington Center
Thu 04:24:55 PM 37.3569 -76.4281 216° Southwest 412 474 34,000  Level Washington Center
Thu 04:25:56 PM 37.2644 -76.5103 215° Southwest 412 474 34,000  Level Washington Center
Thu 04:26:56 PM 37.1742 -76.5981 218° Southwest 412 474 34,000  Level Washington Center
Thu 04:27:57 PM 37.0817 -76.6800 215° Southwest 412 474 34,000  Level Washington Center
Thu 04:28:57 PM 36.9889 -76.7647 216° Southwest 417 480 34,000  Level Washington Center
Thu 04:29:55 PM 36.8964 -76.8489 216° Southwest 417 480 34,000  Level Washington Center
Thu 04:30:55 PM 36.8036 -76.9306 215° Southwest 417 480 34,000  Level Washington Center
Thu 04:31:57 PM 36.7108 -77.0169 217° Southwest 417 480 34,000  Level Washington Center
Thu 04:32:55 PM 36.6181 -77.1006 216° Southwest 417 480 34,000  Level Washington Center
Thu 04:33:55 PM 36.5294 -77.1869 218° Southwest 417 480 34,000  Level Washington Center
Thu 04:34:56 PM 36.4364 -77.2753 217° Southwest 417 480 34,000  Level Washington Center
Thu 04:35:56 PM 36.3453 -77.3636 218° Southwest 417 480 34,000  Level Washington Center
Thu 04:36:57 PM 36.2544 -77.4492 217° Southwest 417 480 34,000  Level Washington Center
Thu 04:37:55 PM 36.1739 -77.5219 216° Southwest 412 474 34,000  Level Washington Center
Thu 04:38:55 PM 36.0828 -77.6094 218° Southwest 417 480 34,000  Level Washington Center
Thu 04:39:56 PM 35.9894 -77.6944 216° Southwest 417 480 34,000  Level Washington Center
Thu 04:40:57 PM 35.8942 -77.7714 213° Southwest 417 480 34,000  Level Washington Center
Thu 04:41:55 PM 35.7969 -77.8456 212° Southwest 417 480 34,000  Level Washington Center
Thu 04:42:56 PM 35.7017 -77.9197 212° Southwest 417 480 34,000  Level Washington Center
Thu 04:43:57 PM 35.6042 -77.9958 212° Southwest 417 480 34,000  Level Washington Center
Thu 04:44:57 PM 35.5064 -78.0722 212° Southwest 417 480 34,000  Level Washington Center
Thu 04:45:56 PM 35.4292 -78.1742 227° Southwest 417 480 34,000  Level Washington Center
Thu 04:46:00 PM 35.4110 -78.1249 212° Southwest  Level FlightAware Approximate
Thu 04:46:56 PM 35.3642 -78.2867 235° Southwest 404 465 34,000  Level Washington Center
Thu 04:47:57 PM 35.2847 -78.3858 226° Southwest 410 472 34,000  Level Washington Center
Thu 04:48:55 PM 35.1869 -78.4561 210° Southwest 410 472 34,000  Level Washington Center
Thu 04:49:55 PM 35.0894 -78.5264 211° Southwest 410 472 34,000  Level Washington Center
Thu 04:51:41 PM 34.9042 -78.6578 210° Southwest 401 461 34,000  Level Jacksonville Center
Thu 04:52:41 PM 34.8086 -78.7258 210° Southwest 406 467 34,000  Level Jacksonville Center
Thu 04:53:41 PM 34.7086 -78.7939 209° Southwest 412 474 34,000  Level Jacksonville Center
Thu 04:54:41 PM 34.6067 -78.8667 210° Southwest 412 474 34,000  Level Jacksonville Center
Thu 04:55:41 PM 34.5025 -78.9372 209° Southwest 417 480 34,000  Level Jacksonville Center
Thu 04:56:41 PM 34.4006 -79.0172 213° Southwest 428 493 34,000  Level Jacksonville Center
Thu 04:57:41 PM 34.3008 -79.0919 212° Southwest 433 498 34,000  Level Jacksonville Center
Thu 04:58:41 PM 34.2033 -79.1792 217° Southwest 438 504 34,000  Level Jacksonville Center
Thu 04:59:41 PM 34.1056 -79.2611 215° Southwest 433 498 34,000  Level Jacksonville Center
Thu 05:00:41 PM 34.0119 -79.3453 217° Southwest 433 498 34,000  Level Jacksonville Center
Thu 05:01:41 PM 33.9161 -79.4292 216° Southwest 428 493 34,000  Level Jacksonville Center
Thu 05:02:41 PM 33.8325 -79.5000 215° Southwest 417 480 34,000  Level Jacksonville Center
Thu 05:03:41 PM 33.7306 -79.5861 215° Southwest 424 488 34,000  Level Jacksonville Center
Thu 05:04:41 PM 33.6325 -79.6722 216° Southwest 424 488 34,000  Level Jacksonville Center
Thu 05:05:41 PM 33.5447 -79.7478 216° Southwest 424 488 34,000  Level Jacksonville Center
Thu 05:06:41 PM 33.4383 -79.8386 215° Southwest 424 488 34,000 -250 Level Jacksonville Center
Thu 05:07:41 PM 33.3403 -79.9214 215° Southwest 424 488 33,500 -950 Descending Jacksonville Center
Thu 05:08:41 PM 33.2461 -80.0042 216° Southwest 424 488 32,100 -1,500 Descending Jacksonville Center
Thu 05:09:41 PM 33.1500 -80.0867 216° Southwest 424 488 30,500 -1,550 Descending Jacksonville Center
Thu 05:10:41 PM 33.0639 -80.1611 216° Southwest 434 499 29,000 -1,250 Descending Jacksonville Center
Thu 05:11:41 PM 32.9614 -80.2461 215° Southwest 440 506 28,000 -500 Descending Jacksonville Center
Thu 05:12:41 PM 32.8525 -80.3381 215° Southwest 450 518 28,000  Level Jacksonville Center
Thu 05:13:41 PM 32.7561 -80.4175 215° Southwest 444 511 28,000  Level Jacksonville Center
Thu 05:14:41 PM 32.6575 -80.4992 215° Southwest 439 505 28,000 -150 Level Jacksonville Center
Thu 05:15:41 PM 32.5522 -80.5686 209° Southwest 437 503 27,700 -850 Descending Jacksonville Center
Thu 05:16:41 PM 32.4469 -80.6353 208° Southwest 428 493 26,300 -1,450 Descending Jacksonville Center
Thu 05:17:41 PM 32.3458 -80.7017 209° Southwest 421 484 24,800 -1,150 Descending Jacksonville Center
Thu 05:18:41 PM 32.2489 -80.7678 210° Southwest 412 474 24,000 -400 Descending Jacksonville Center
Thu 05:19:41 PM 32.1600 -80.8239 208° Southwest 412 474 24,000  Level Jacksonville Center
Thu 05:20:41 PM 32.0486 -80.8950 208° Southwest 412 474 24,000  Level Jacksonville Center
Thu 05:21:41 PM 31.9492 -80.9583 208° Southwest 412 474 24,000  Level Jacksonville Center
Thu 05:22:41 PM 31.8519 -81.0117 205° Southwest 412 474 24,000 -650 Level Jacksonville Center
Thu 05:23:41 PM 31.7336 -81.0533 197° South 417 480 22,700 -1,300 Descending Jacksonville Center
Thu 05:24:41 PM 31.6256 -81.0847 194° South 412 474 21,400 -1,300 Descending Jacksonville Center
Thu 05:25:41 PM 31.5297 -81.1158 195° South 407 468 20,100 -1,400 Descending Jacksonville Center
Thu 05:26:41 PM 31.4175 -81.1494 194° South 389 448 18,600 -1,450 Descending Jacksonville Center
Thu 05:27:41 PM 31.3242 -81.1828 197° South 388 447 17,200 -1,550 Descending Jacksonville Center
Thu 05:28:41 PM 31.2242 -81.2139 195° South 388 447 15,500 -1,909 Descending Jacksonville Center
Thu 05:29:31 PM 31.1306 -81.2397 193° South 363 418 13,700 -1,900 Descending Jacksonville Center
Thu 05:29:41 PM 31.1286 -81.2447 246° West 375 432 13,600 -1,742 Descending Jacksonville Center
Thu 05:30:02 PM 31.0869 -81.2550 192° South 354 407 12,800 -1,900 Descending Jacksonville Center
Thu 05:30:41 PM 31.0328 -81.2706 194° South 363 418 11,700 -1,770 Descending Jacksonville Center
Thu 05:31:03 PM 30.9933 -81.2833 196° South 344 396 11,000 -1,214 Descending Jacksonville Center
Thu 05:32:05 PM 30.8978 -81.3142 195° South 316 364 10,000 -1,102 Descending Jacksonville Center
Thu 05:32:41 PM 30.8625 -81.3267 197° South 328 377 9,200 -1,527 Descending Jacksonville Center
Thu 05:33:00 PM 30.8314 -81.3467 209° Southwest 275 316 8,600 -1,700 Descending Jacksonville Center
Thu 05:33:41 PM 30.8003 -81.3761 219° Southwest 302 348 7,500 -1,574 Descending Jacksonville Center
Thu 05:34:01 PM 30.7819 -81.4056 234° Southwest 266 306 7,000 -700 Descending Jacksonville Center
Thu 05:34:41 PM 30.7553 -81.4444 231° Southwest 276 318 6,800 -896 Descending Jacksonville Center
Thu 05:35:08 PM 30.7306 -81.4836 234° Southwest 257 296 6,000 -1,500 Descending Jacksonville Center
Thu 05:35:41 PM 30.7078 -81.5033 217° Southwest 265 305 5,300 -1,500 Descending Jacksonville Center
Thu 05:36:04 PM 30.6767 -81.5183 203° Southwest 252 290 4,600 -1,800 Descending Jacksonville Center
Thu 05:36:41 PM 30.6456 -81.5356 205° Southwest 253 291 3,500 -1,574 Descending Jacksonville Center
Thu 05:37:05 PM 30.6103 -81.5506 200° South 253 291 3,000 -800 Descending Jacksonville Center
Thu 05:37:41 PM 30.5811 -81.5678 207° Southwest 253 291 2,700 -492 Descending Jacksonville Center
Thu 05:38:06 PM 30.5519 -81.5803 200° South 216 249 2,500 -800 Descending Jacksonville Center
Thu 05:38:41 PM 30.5292 -81.6000 217° Southwest 238 274 1,900 -1,179 Descending Jacksonville Center
Thu 05:39:02 PM 30.5211 -81.6242 249° West 174 200 1,400 -1,244 Descending Jacksonville Center
Thu 05:40:03 PM 30.5069 -81.6703 250° West 143 165 200 -1,180 Descending Jacksonville Center
Thu 05:42:00 PM 30.4941 -81.6878 210° Southwest  Level Estimated

Login

Don't have an account? Register now (free) for customized features, flight alerts, and more!